Overview Statistics Trail Chart Weather Telemetry Raw packets
 

This is the latest recevied weather packets stored in our database for station/object WC4PEM-4. If no packets are shown the sender has not sent any weather packets the latest 10 day(s).

<< 36 37 38 39 40 41 42 >>
Time Temp. Humidity Pressure Rain* Wind** Luminosity Snow
1788379275 28.89° C 88% 1013.4 hPa 0.25 mm - - -
1788378975 28.89° C 88% 1013.4 hPa 0.51 mm - - -
1788378675 28.33° C 87% 1013.4 hPa 0.76 mm - - -
1788378375 28.33° C 90% 1013.4 hPa 1.02 mm - - -
1788378205 28.33° C 90% 1013.5 hPa 1.27 mm - - -
1788378075 28.33° C 90% 1013.5 hPa 1.27 mm - - -
1788377888 27.78° C 89% 1013.7 hPa 2.54 mm - - -
1788377775 27.78° C 89% 1013.7 hPa 2.54 mm - - -
1788377475 27.78° C 89% 1013.7 hPa 4.06 mm - - -
1788377175 27.78° C 90% 1013.7 hPa 4.06 mm - - -
1788376988 27.78° C 88% 1013.9 hPa 4.06 mm - - -
1788376875 27.78° C 88% 1013.9 hPa 4.06 mm - - -
1788376575 27.22° C 87% 1013.8 hPa 4.06 mm - - -
1788376275 27.22° C 89% 1013.9 hPa 4.06 mm - - -
1788375975 27.22° C 88% 1014.1 hPa 3.81 mm - - -
1788375803 27.78° C 88% 1014.3 hPa 3.81 mm - - -
1788375675 27.78° C 88% 1014.3 hPa 3.81 mm - - -
1788375375 27.78° C 87% 1014.3 hPa 3.56 mm - - -
1788375075 28.33° C 87% 1014.3 hPa 3.3 mm - - -
1788374775 28.33° C 88% 1014.2 hPa 3.05 mm - - -
1788374475 28.89° C 83% 1014.4 hPa 2.79 mm - - -
1788374314 30° C 80% 1014.5 hPa 1.02 mm - - -
1788374175 30° C 80% 1014.5 hPa 1.02 mm - - -
1788373875 32.22° C 70% 1014.3 hPa 0 mm - - -
1788373575 32.78° C 63% 1014.3 hPa 0 mm - - -

* Rain latest hour (hover to see other rain measurements)
** Current wind speed in m/s (hover to see current wind gust speed)